Flight schools

Flying Academy USA

Flying Academy USA

Miami, Florida        Current temp 16 °C

Flying Academy Europa

Flying Academy Europa

Prague & Brno, Czech Republic        Current temp 1 °C


News

archive

Latest blog post

archive

Latest weather

LKKV

LKKV 191200Z 11005KT 5000 BR OVC005 M01/M02 Q1017 R29/19//95

LKPR

LKPR 191200Z 17003KT 8000 OVC015 00/M02 Q1020 R24/29//95 R30/35//95 NOSIG

LKTB

LKTB 191200Z 13014KT 9999 OVC023 01/M03 Q1023 NOSIG